sensor_id;sensor_type;location;lat;lon;timestamp;P1;durP1;ratioP1;P2;durP2;ratioP2
33738;SDS011;20063;51.730;11.110;2022-08-30T00:00:36;6.47;;;1.88;;
33738;SDS011;20063;51.730;11.110;2022-08-30T00:03:30;6.38;;;1.55;;
33738;SDS011;20063;51.730;11.110;2022-08-30T00:05:58;1.90;;;1.60;;
33738;SDS011;20063;51.730;11.110;2022-08-30T00:08:30;1.42;;;1.33;;
33738;SDS011;20063;51.730;11.110;2022-08-30T00:10:56;1.90;;;1.30;;
33738;SDS011;20063;51.730;11.110;2022-08-30T00:13:27;4.97;;;1.92;;
33738;SDS011;20063;51.730;11.110;2022-08-30T00:15:53;1.58;;;1.40;;
33738;SDS011;20063;51.730;11.110;2022-08-30T00:18:28;2.45;;;1.50;;
33738;SDS011;20063;51.730;11.110;2022-08-30T00:20:53;4.28;;;1.92;;
33738;SDS011;20063;51.730;11.110;2022-08-30T00:23:28;1.30;;;1.20;;
33738;SDS011;20063;51.730;11.110;2022-08-30T00:25:57;1.60;;;1.50;;
33738;SDS011;20063;51.730;11.110;2022-08-30T00:28:27;3.53;;;2.00;;
33738;SDS011;20063;51.730;11.110;2022-08-30T00:30:54;1.65;;;1.33;;
33738;SDS011;20063;51.730;11.110;2022-08-30T00:33:28;1.52;;;1.40;;
33738;SDS011;20063;51.730;11.110;2022-08-30T00:35:54;2.55;;;1.50;;
33738;SDS011;20063;51.730;11.110;2022-08-30T00:38:21;2.55;;;1.40;;
33738;SDS011;20063;51.730;11.110;2022-08-30T00:40:48;2.70;;;1.60;;
33738;SDS011;20063;51.730;11.110;2022-08-30T00:43:28;1.50;;;1.38;;
33738;SDS011;20063;51.730;11.110;2022-08-30T00:45:55;1.95;;;1.77;;
33738;SDS011;20063;51.730;11.110;2022-08-30T00:48:35;2.17;;;1.75;;
33738;SDS011;20063;51.730;11.110;2022-08-30T00:51:06;1.08;;;1.08;;
33738;SDS011;20063;51.730;11.110;2022-08-30T00:53:35;1.50;;;1.40;;
33738;SDS011;20063;51.730;11.110;2022-08-30T00:56:03;2.83;;;1.40;;
33738;SDS011;20063;51.730;11.110;2022-08-30T00:58:30;2.17;;;1.42;;
33738;SDS011;20063;51.730;11.110;2022-08-30T01:01:01;1.50;;;1.38;;
33738;SDS011;20063;51.730;11.110;2022-08-30T01:03:29;1.40;;;1.30;;
33738;SDS011;20063;51.730;11.110;2022-08-30T01:05:55;1.83;;;1.30;;
33738;SDS011;20063;51.730;11.110;2022-08-30T01:08:28;3.13;;;1.42;;
33738;SDS011;20063;51.730;11.110;2022-08-30T01:10:54;2.22;;;1.20;;
33738;SDS011;20063;51.730;11.110;2022-08-30T01:13:22;1.23;;;1.13;;
33738;SDS011;20063;51.730;11.110;2022-08-30T01:15:49;3.42;;;1.30;;
33738;SDS011;20063;51.730;11.110;2022-08-30T01:18:15;2.80;;;1.23;;
33738;SDS011;20063;51.730;11.110;2022-08-30T01:20:46;1.20;;;1.13;;
33738;SDS011;20063;51.730;11.110;2022-08-30T01:23:32;2.53;;;1.52;;
33738;SDS011;20063;51.730;11.110;2022-08-30T01:26:01;1.73;;;1.20;;
33738;SDS011;20063;51.730;11.110;2022-08-30T01:28:38;1.83;;;1.20;;
33738;SDS011;20063;51.730;11.110;2022-08-30T01:31:04;1.92;;;1.38;;
33738;SDS011;20063;51.730;11.110;2022-08-30T01:33:30;3.60;;;1.75;;
33738;SDS011;20063;51.730;11.110;2022-08-30T01:36:00;2.42;;;1.38;;
33738;SDS011;20063;51.730;11.110;2022-08-30T01:38:36;1.58;;;1.40;;
33738;SDS011;20063;51.730;11.110;2022-08-30T01:41:26;2.45;;;1.40;;
33738;SDS011;20063;51.730;11.110;2022-08-30T01:43:55;1.25;;;1.15;;
33738;SDS011;20063;51.730;11.110;2022-08-30T01:46:32;2.25;;;1.60;;
33738;SDS011;20063;51.730;11.110;2022-08-30T01:49:03;1.42;;;1.27;;
33738;SDS011;20063;51.730;11.110;2022-08-30T01:51:31;2.90;;;1.45;;
33738;SDS011;20063;51.730;11.110;2022-08-30T01:53:57;2.10;;;1.60;;
33738;SDS011;20063;51.730;11.110;2022-08-30T01:56:32;1.58;;;1.48;;
33738;SDS011;20063;51.730;11.110;2022-08-30T01:58:58;1.50;;;1.35;;
33738;SDS011;20063;51.730;11.110;2022-08-30T02:01:33;2.58;;;1.48;;
33738;SDS011;20063;51.730;11.110;2022-08-30T02:04:00;2.75;;;1.70;;
33738;SDS011;20063;51.730;11.110;2022-08-30T02:06:29;2.45;;;1.52;;
33738;SDS011;20063;51.730;11.110;2022-08-30T02:08:55;6.47;;;1.92;;
33738;SDS011;20063;51.730;11.110;2022-08-30T02:11:30;1.83;;;1.70;;
33738;SDS011;20063;51.730;11.110;2022-08-30T02:13:55;2.42;;;1.65;;
33738;SDS011;20063;51.730;11.110;2022-08-30T02:16:30;5.00;;;1.35;;
33738;SDS011;20063;51.730;11.110;2022-08-30T02:21:31;4.32;;;1.45;;
33738;SDS011;20063;51.730;11.110;2022-08-30T02:23:57;1.60;;;1.20;;
33738;SDS011;20063;51.730;11.110;2022-08-30T02:26:35;3.85;;;1.80;;
33738;SDS011;20063;51.730;11.110;2022-08-30T02:29:01;3.00;;;1.50;;
33738;SDS011;20063;51.730;11.110;2022-08-30T02:31:29;1.25;;;1.10;;
33738;SDS011;20063;51.730;11.110;2022-08-30T02:33:55;1.70;;;1.20;;
33738;SDS011;20063;51.730;11.110;2022-08-30T02:36:27;1.15;;;1.13;;
33738;SDS011;20063;51.730;11.110;2022-08-30T02:38:52;2.40;;;1.50;;
33738;SDS011;20063;51.730;11.110;2022-08-30T02:41:18;1.38;;;1.27;;
33738;SDS011;20063;51.730;11.110;2022-08-30T02:43:44;2.58;;;1.23;;
33738;SDS011;20063;51.730;11.110;2022-08-30T02:46:10;2.42;;;1.17;;
33738;SDS011;20063;51.730;11.110;2022-08-30T02:48:39;3.22;;;1.23;;
33738;SDS011;20063;51.730;11.110;2022-08-30T02:51:05;4.40;;;1.25;;
33738;SDS011;20063;51.730;11.110;2022-08-30T02:53:38;1.10;;;1.00;;
33738;SDS011;20063;51.730;11.110;2022-08-30T02:56:05;1.48;;;1.25;;
33738;SDS011;20063;51.730;11.110;2022-08-30T02:58:31;0.95;;;0.93;;
33738;SDS011;20063;51.730;11.110;2022-08-30T03:00:57;1.17;;;1.08;;
33738;SDS011;20063;51.730;11.110;2022-08-30T03:03:26;2.38;;;1.30;;
33738;SDS011;20063;51.730;11.110;2022-08-30T03:05:51;4.30;;;1.38;;
33738;SDS011;20063;51.730;11.110;2022-08-30T03:08:26;2.83;;;1.30;;
33738;SDS011;20063;51.730;11.110;2022-08-30T03:10:52;1.60;;;1.33;;
33738;SDS011;20063;51.730;11.110;2022-08-30T03:13:18;1.05;;;0.90;;
33738;SDS011;20063;51.730;11.110;2022-08-30T03:15:43;2.83;;;1.40;;
33738;SDS011;20063;51.730;11.110;2022-08-30T03:18:09;2.65;;;1.05;;
33738;SDS011;20063;51.730;11.110;2022-08-30T03:20:35;1.17;;;1.10;;
33738;SDS011;20063;51.730;11.110;2022-08-30T03:23:00;1.40;;;1.00;;
33738;SDS011;20063;51.730;11.110;2022-08-30T03:25:29;1.52;;;1.35;;
33738;SDS011;20063;51.730;11.110;2022-08-30T03:27:54;1.75;;;1.35;;
33738;SDS011;20063;51.730;11.110;2022-08-30T03:30:20;3.70;;;1.20;;
33738;SDS011;20063;51.730;11.110;2022-08-30T03:32:46;1.33;;;1.00;;
33738;SDS011;20063;51.730;11.110;2022-08-30T03:35:12;3.47;;;1.40;;
33738;SDS011;20063;51.730;11.110;2022-08-30T03:37:39;2.05;;;1.45;;
33738;SDS011;20063;51.730;11.110;2022-08-30T03:40:06;1.40;;;1.30;;
33738;SDS011;20063;51.730;11.110;2022-08-30T03:42:33;2.50;;;1.02;;
33738;SDS011;20063;51.730;11.110;2022-08-30T03:44:59;0.80;;;0.80;;
33738;SDS011;20063;51.730;11.110;2022-08-30T03:47:28;1.45;;;1.20;;
33738;SDS011;20063;51.730;11.110;2022-08-30T03:49:54;1.25;;;1.00;;
33738;SDS011;20063;51.730;11.110;2022-08-30T03:52:20;0.88;;;0.88;;
33738;SDS011;20063;51.730;11.110;2022-08-30T03:54:45;6.60;;;1.25;;
33738;SDS011;20063;51.730;11.110;2022-08-30T03:57:11;3.63;;;1.52;;
33738;SDS011;20063;51.730;11.110;2022-08-30T03:59:37;5.22;;;1.83;;
33738;SDS011;20063;51.730;11.110;2022-08-30T04:02:03;5.13;;;1.60;;
33738;SDS011;20063;51.730;11.110;2022-08-30T04:07:36;3.20;;;1.92;;
33738;SDS011;20063;51.730;11.110;2022-08-30T04:10:02;2.60;;;1.92;;
33738;SDS011;20063;51.730;11.110;2022-08-30T04:12:34;4.82;;;2.63;;
33738;SDS011;20063;51.730;11.110;2022-08-30T04:15:01;4.63;;;2.15;;
33738;SDS011;20063;51.730;11.110;2022-08-30T04:17:36;4.28;;;2.58;;
33738;SDS011;20063;51.730;11.110;2022-08-30T04:20:01;5.82;;;2.50;;
33738;SDS011;20063;51.730;11.110;2022-08-30T04:22:37;5.47;;;2.95;;
33738;SDS011;20063;51.730;11.110;2022-08-30T04:25:03;2.92;;;2.50;;
33738;SDS011;20063;51.730;11.110;2022-08-30T04:27:38;3.70;;;3.10;;
33738;SDS011;20063;51.730;11.110;2022-08-30T04:30:04;3.85;;;2.80;;
33738;SDS011;20063;51.730;11.110;2022-08-30T04:32:32;4.53;;;3.42;;
33738;SDS011;20063;51.730;11.110;2022-08-30T04:34:59;5.63;;;3.88;;
33738;SDS011;20063;51.730;11.110;2022-08-30T04:37:38;5.03;;;4.25;;
33738;SDS011;20063;51.730;11.110;2022-08-30T04:40:05;6.05;;;5.18;;
33738;SDS011;20063;51.730;11.110;2022-08-30T04:42:37;6.85;;;4.43;;
33738;SDS011;20063;51.730;11.110;2022-08-30T04:45:03;10.10;;;5.97;;
33738;SDS011;20063;51.730;11.110;2022-08-30T04:47:35;11.25;;;6.68;;
33738;SDS011;20063;51.730;11.110;2022-08-30T04:50:00;8.68;;;6.15;;
33738;SDS011;20063;51.730;11.110;2022-08-30T04:52:29;5.53;;;4.53;;
33738;SDS011;20063;51.730;11.110;2022-08-30T04:54:58;10.50;;;5.95;;
33738;SDS011;20063;51.730;11.110;2022-08-30T04:57:36;9.25;;;7.60;;
33738;SDS011;20063;51.730;11.110;2022-08-30T05:00:05;11.90;;;6.78;;
33738;SDS011;20063;51.730;11.110;2022-08-30T05:02:32;6.55;;;3.88;;
33738;SDS011;20063;51.730;11.110;2022-08-30T05:04:58;6.55;;;3.40;;
33738;SDS011;20063;51.730;11.110;2022-08-30T05:07:42;5.47;;;3.60;;
33738;SDS011;20063;51.730;11.110;2022-08-30T05:10:07;5.78;;;4.13;;
33738;SDS011;20063;51.730;11.110;2022-08-30T05:12:33;7.03;;;3.70;;
33738;SDS011;20063;51.730;11.110;2022-08-30T05:14:59;8.43;;;3.55;;
33738;SDS011;20063;51.730;11.110;2022-08-30T05:17:27;7.18;;;4.85;;
33738;SDS011;20063;51.730;11.110;2022-08-30T05:19:53;7.15;;;4.93;;
33738;SDS011;20063;51.730;11.110;2022-08-30T05:22:19;10.48;;;5.65;;
33738;SDS011;20063;51.730;11.110;2022-08-30T05:24:44;5.82;;;4.45;;
33738;SDS011;20063;51.730;11.110;2022-08-30T05:27:10;7.07;;;5.15;;
33738;SDS011;20063;51.730;11.110;2022-08-30T05:29:41;7.82;;;4.47;;
33738;SDS011;20063;51.730;11.110;2022-08-30T05:32:07;12.90;;;5.40;;
33738;SDS011;20063;51.730;11.110;2022-08-30T05:34:45;6.97;;;4.38;;
33738;SDS011;20063;51.730;11.110;2022-08-30T05:37:10;6.35;;;4.63;;
33738;SDS011;20063;51.730;11.110;2022-08-30T05:39:36;11.07;;;6.18;;
33738;SDS011;20063;51.730;11.110;2022-08-30T05:42:01;10.20;;;7.13;;
33738;SDS011;20063;51.730;11.110;2022-08-30T05:44:33;15.77;;;9.90;;
33738;SDS011;20063;51.730;11.110;2022-08-30T05:46:59;16.45;;;8.18;;
33738;SDS011;20063;51.730;11.110;2022-08-30T05:49:31;12.13;;;6.72;;
33738;SDS011;20063;51.730;11.110;2022-08-30T05:51:57;15.32;;;5.97;;
33738;SDS011;20063;51.730;11.110;2022-08-30T05:54:22;22.27;;;12.05;;
33738;SDS011;20063;51.730;11.110;2022-08-30T05:56:54;19.63;;;11.38;;
33738;SDS011;20063;51.730;11.110;2022-08-30T05:59:20;15.20;;;9.93;;
33738;SDS011;20063;51.730;11.110;2022-08-30T06:01:46;14.80;;;10.00;;
33738;SDS011;20063;51.730;11.110;2022-08-30T06:04:12;20.42;;;12.65;;
33738;SDS011;20063;51.730;11.110;2022-08-30T06:06:39;19.98;;;12.20;;
33738;SDS011;20063;51.730;11.110;2022-08-30T06:09:07;24.55;;;12.57;;
33738;SDS011;20063;51.730;11.110;2022-08-30T06:11:40;19.55;;;12.32;;
33738;SDS011;20063;51.730;11.110;2022-08-30T06:14:06;29.50;;;17.75;;
33738;SDS011;20063;51.730;11.110;2022-08-30T06:16:44;31.57;;;17.40;;
33738;SDS011;20063;51.730;11.110;2022-08-30T06:19:10;32.72;;;16.98;;
33738;SDS011;20063;51.730;11.110;2022-08-30T06:21:41;24.45;;;14.05;;
33738;SDS011;20063;51.730;11.110;2022-08-30T06:24:11;29.70;;;15.65;;
33738;SDS011;20063;51.730;11.110;2022-08-30T06:26:38;35.05;;;17.55;;
33738;SDS011;20063;51.730;11.110;2022-08-30T06:29:10;26.00;;;14.40;;
33738;SDS011;20063;51.730;11.110;2022-08-30T06:31:41;29.85;;;14.80;;
33738;SDS011;20063;51.730;11.110;2022-08-30T06:34:07;19.08;;;11.07;;
33738;SDS011;20063;51.730;11.110;2022-08-30T06:36:36;22.40;;;11.15;;
33738;SDS011;20063;51.730;11.110;2022-08-30T06:39:02;24.15;;;11.55;;
33738;SDS011;20063;51.730;11.110;2022-08-30T06:41:29;26.17;;;14.85;;
33738;SDS011;20063;51.730;11.110;2022-08-30T06:43:57;30.20;;;15.60;;
33738;SDS011;20063;51.730;11.110;2022-08-30T06:46:29;22.92;;;12.55;;
33738;SDS011;20063;51.730;11.110;2022-08-30T06:48:57;26.63;;;13.15;;
33738;SDS011;20063;51.730;11.110;2022-08-30T06:51:24;25.98;;;12.88;;
33738;SDS011;20063;51.730;11.110;2022-08-30T06:53:52;23.42;;;13.25;;
33738;SDS011;20063;51.730;11.110;2022-08-30T06:56:18;19.35;;;12.45;;
33738;SDS011;20063;51.730;11.110;2022-08-30T06:58:44;17.48;;;10.75;;
33738;SDS011;20063;51.730;11.110;2022-08-30T07:01:11;26.30;;;14.52;;
33738;SDS011;20063;51.730;11.110;2022-08-30T07:03:39;17.83;;;10.85;;
33738;SDS011;20063;51.730;11.110;2022-08-30T07:06:05;26.73;;;13.02;;
33738;SDS011;20063;51.730;11.110;2022-08-30T07:08:31;14.68;;;10.40;;
33738;SDS011;20063;51.730;11.110;2022-08-30T07:10:57;26.73;;;16.05;;
33738;SDS011;20063;51.730;11.110;2022-08-30T07:13:23;23.02;;;13.43;;
33738;SDS011;20063;51.730;11.110;2022-08-30T07:15:54;28.83;;;15.10;;
33738;SDS011;20063;51.730;11.110;2022-08-30T07:18:20;17.75;;;11.35;;
33738;SDS011;20063;51.730;11.110;2022-08-30T07:21:06;16.02;;;9.18;;
33738;SDS011;20063;51.730;11.110;2022-08-30T07:23:46;24.83;;;11.57;;
33738;SDS011;20063;51.730;11.110;2022-08-30T07:26:17;16.50;;;10.13;;
33738;SDS011;20063;51.730;11.110;2022-08-30T07:28:45;29.80;;;12.93;;
33738;SDS011;20063;51.730;11.110;2022-08-30T07:31:12;24.88;;;12.85;;
33738;SDS011;20063;51.730;11.110;2022-08-30T07:33:45;21.75;;;12.80;;
33738;SDS011;20063;51.730;11.110;2022-08-30T07:36:12;22.80;;;12.32;;
33738;SDS011;20063;51.730;11.110;2022-08-30T07:38:39;19.42;;;11.20;;
33738;SDS011;20063;51.730;11.110;2022-08-30T07:41:05;33.85;;;15.18;;
33738;SDS011;20063;51.730;11.110;2022-08-30T07:43:34;19.45;;;13.13;;
33738;SDS011;20063;51.730;11.110;2022-08-30T07:46:05;25.50;;;15.80;;
33738;SDS011;20063;51.730;11.110;2022-08-30T07:48:43;34.60;;;21.83;;
33738;SDS011;20063;51.730;11.110;2022-08-30T07:51:17;27.42;;;17.23;;
33738;SDS011;20063;51.730;11.110;2022-08-30T07:53:47;45.22;;;25.85;;
33738;SDS011;20063;51.730;11.110;2022-08-30T07:56:13;38.00;;;23.20;;
33738;SDS011;20063;51.730;11.110;2022-08-30T07:58:45;37.83;;;22.27;;
33738;SDS011;20063;51.730;11.110;2022-08-30T08:01:12;31.35;;;19.45;;
33738;SDS011;20063;51.730;11.110;2022-08-30T08:03:46;47.28;;;26.67;;
33738;SDS011;20063;51.730;11.110;2022-08-30T08:06:14;40.33;;;24.35;;
33738;SDS011;20063;51.730;11.110;2022-08-30T08:08:50;31.05;;;19.67;;
33738;SDS011;20063;51.730;11.110;2022-08-30T08:11:18;35.42;;;21.98;;
33738;SDS011;20063;51.730;11.110;2022-08-30T08:13:53;41.08;;;25.25;;
33738;SDS011;20063;51.730;11.110;2022-08-30T08:16:19;31.95;;;20.98;;
33738;SDS011;20063;51.730;11.110;2022-08-30T08:18:47;30.00;;;20.17;;
33738;SDS011;20063;51.730;11.110;2022-08-30T08:21:12;32.08;;;18.92;;
33738;SDS011;20063;51.730;11.110;2022-08-30T08:23:41;44.97;;;24.70;;
33738;SDS011;20063;51.730;11.110;2022-08-30T08:26:06;39.45;;;23.52;;
33738;SDS011;20063;51.730;11.110;2022-08-30T08:28:41;31.88;;;18.92;;
33738;SDS011;20063;51.730;11.110;2022-08-30T08:31:40;29.45;;;18.40;;
33738;SDS011;20063;51.730;11.110;2022-08-30T08:34:09;36.47;;;20.35;;
33738;SDS011;20063;51.730;11.110;2022-08-30T08:36:48;36.80;;;22.38;;
33738;SDS011;20063;51.730;11.110;2022-08-30T08:39:14;37.55;;;23.33;;
33738;SDS011;20063;51.730;11.110;2022-08-30T08:45:03;41.78;;;24.67;;
33738;SDS011;20063;51.730;11.110;2022-08-30T08:47:26;40.13;;;26.27;;
33738;SDS011;20063;51.730;11.110;2022-08-30T08:50:11;36.17;;;22.58;;
33738;SDS011;20063;51.730;11.110;2022-08-30T08:55:53;36.90;;;23.92;;
33738;SDS011;20063;51.730;11.110;2022-08-30T08:58:21;42.38;;;24.90;;
33738;SDS011;20063;51.730;11.110;2022-08-30T09:00:50;48.25;;;29.08;;
33738;SDS011;20063;51.730;11.110;2022-08-30T09:03:16;51.20;;;26.15;;
33738;SDS011;20063;51.730;11.110;2022-08-30T09:05:48;35.30;;;21.88;;
33738;SDS011;20063;51.730;11.110;2022-08-30T09:08:14;24.15;;;16.38;;
33738;SDS011;20063;51.730;11.110;2022-08-30T09:10:49;40.65;;;23.30;;
33738;SDS011;20063;51.730;11.110;2022-08-30T09:13:21;33.83;;;20.38;;
33738;SDS011;20063;51.730;11.110;2022-08-30T09:15:49;26.58;;;17.10;;
33738;SDS011;20063;51.730;11.110;2022-08-30T09:18:15;23.45;;;14.75;;
33738;SDS011;20063;51.730;11.110;2022-08-30T09:20:47;27.13;;;16.38;;
33738;SDS011;20063;51.730;11.110;2022-08-30T09:23:26;24.33;;;16.58;;
33738;SDS011;20063;51.730;11.110;2022-08-30T09:26:00;26.90;;;17.42;;
33738;SDS011;20063;51.730;11.110;2022-08-30T09:28:46;25.10;;;16.60;;
33738;SDS011;20063;51.730;11.110;2022-08-30T09:31:17;26.58;;;17.00;;
33738;SDS011;20063;51.730;11.110;2022-08-30T09:36:48;21.65;;;14.35;;
33738;SDS011;20063;51.730;11.110;2022-08-30T09:39:24;22.15;;;14.13;;
33738;SDS011;20063;51.730;11.110;2022-08-30T09:42:09;20.63;;;15.43;;
33738;SDS011;20063;51.730;11.110;2022-08-30T09:44:48;16.58;;;11.57;;
33738;SDS011;20063;51.730;11.110;2022-08-30T09:47:18;25.85;;;15.90;;
33738;SDS011;20063;51.730;11.110;2022-08-30T09:50:15;14.73;;;10.30;;
33738;SDS011;20063;51.730;11.110;2022-08-30T09:55:48;16.83;;;13.05;;
33738;SDS011;20063;51.730;11.110;2022-08-30T09:58:39;17.85;;;10.25;;
33738;SDS011;20063;51.730;11.110;2022-08-30T10:01:14;23.95;;;16.45;;
33738;SDS011;20063;51.730;11.110;2022-08-30T10:03:55;21.27;;;13.20;;
33738;SDS011;20063;51.730;11.110;2022-08-30T10:06:40;19.95;;;13.10;;
33738;SDS011;20063;51.730;11.110;2022-08-30T10:11:55;19.40;;;14.30;;
33738;SDS011;20063;51.730;11.110;2022-08-30T10:17:55;24.92;;;14.23;;
33738;SDS011;20063;51.730;11.110;2022-08-30T10:26:42;30.90;;;17.20;;
33738;SDS011;20063;51.730;11.110;2022-08-30T10:32:13;28.27;;;16.65;;
33738;SDS011;20063;51.730;11.110;2022-08-30T10:37:28;22.50;;;13.93;;
33738;SDS011;20063;51.730;11.110;2022-08-30T10:39:58;19.08;;;13.90;;
33738;SDS011;20063;51.730;11.110;2022-08-30T10:42:52;29.65;;;17.65;;
33738;SDS011;20063;51.730;11.110;2022-08-30T10:45:20;20.27;;;13.85;;
33738;SDS011;20063;51.730;11.110;2022-08-30T10:47:54;25.90;;;15.13;;
33738;SDS011;20063;51.730;11.110;2022-08-30T10:50:31;16.50;;;11.73;;
33738;SDS011;20063;51.730;11.110;2022-08-30T10:55:55;32.15;;;15.82;;
33738;SDS011;20063;51.730;11.110;2022-08-30T10:58:27;20.88;;;15.63;;
33738;SDS011;20063;51.730;11.110;2022-08-30T11:15:15;16.80;;;10.93;;
33738;SDS011;20063;51.730;11.110;2022-08-30T11:17:45;13.90;;;11.07;;
33738;SDS011;20063;51.730;11.110;2022-08-30T11:20:20;15.30;;;11.32;;
33738;SDS011;20063;51.730;11.110;2022-08-30T11:31:09;14.85;;;12.02;;
33738;SDS011;20063;51.730;11.110;2022-08-30T11:39:08;13.40;;;10.25;;
33738;SDS011;20063;51.730;11.110;2022-08-30T11:47:58;9.82;;;8.80;;
33738;SDS011;20063;51.730;11.110;2022-08-30T11:56:13;17.75;;;11.30;;
33738;SDS011;20063;51.730;11.110;2022-08-30T11:58:53;16.85;;;9.10;;
33738;SDS011;20063;51.730;11.110;2022-08-30T12:17:18;9.73;;;6.88;;
33738;SDS011;20063;51.730;11.110;2022-08-30T12:22:51;11.02;;;7.10;;
33738;SDS011;20063;51.730;11.110;2022-08-30T12:25:19;9.75;;;6.72;;
33738;SDS011;20063;51.730;11.110;2022-08-30T12:28:08;5.50;;;4.93;;
33738;SDS011;20063;51.730;11.110;2022-08-30T12:30:48;9.32;;;6.53;;
33738;SDS011;20063;51.730;11.110;2022-08-30T12:33:22;9.30;;;5.45;;
33738;SDS011;20063;51.730;11.110;2022-08-30T12:38:19;4.30;;;3.50;;
33738;SDS011;20063;51.730;11.110;2022-08-30T12:40:52;6.00;;;4.85;;
33738;SDS011;20063;51.730;11.110;2022-08-30T12:43:32;14.07;;;6.65;;
33738;SDS011;20063;51.730;11.110;2022-08-30T12:46:01;9.88;;;5.65;;
33738;SDS011;20063;51.730;11.110;2022-08-30T12:48:39;11.82;;;5.00;;
33738;SDS011;20063;51.730;11.110;2022-08-30T12:51:05;5.22;;;3.72;;
33738;SDS011;20063;51.730;11.110;2022-08-30T12:53:41;7.78;;;3.90;;
33738;SDS011;20063;51.730;11.110;2022-08-30T12:56:08;3.63;;;3.33;;
33738;SDS011;20063;51.730;11.110;2022-08-30T12:58:49;9.95;;;4.72;;
33738;SDS011;20063;51.730;11.110;2022-08-30T13:01:18;6.10;;;4.45;;
33738;SDS011;20063;51.730;11.110;2022-08-30T13:09:23;11.18;;;3.78;;
33738;SDS011;20063;51.730;11.110;2022-08-30T13:12:23;4.72;;;3.17;;
33738;SDS011;20063;51.730;11.110;2022-08-30T13:14:51;5.85;;;4.20;;
33738;SDS011;20063;51.730;11.110;2022-08-30T13:19:43;7.10;;;4.00;;
33738;SDS011;20063;51.730;11.110;2022-08-30T13:22:22;4.53;;;2.85;;
33738;SDS011;20063;51.730;11.110;2022-08-30T13:25:03;9.73;;;3.20;;
33738;SDS011;20063;51.730;11.110;2022-08-30T13:27:30;4.28;;;3.00;;
33738;SDS011;20063;51.730;11.110;2022-08-30T13:30:04;3.70;;;2.92;;
33738;SDS011;20063;51.730;11.110;2022-08-30T13:32:47;4.95;;;2.80;;
33738;SDS011;20063;51.730;11.110;2022-08-30T13:35:12;4.78;;;3.15;;
33738;SDS011;20063;51.730;11.110;2022-08-30T13:37:44;9.05;;;3.40;;
33738;SDS011;20063;51.730;11.110;2022-08-30T13:40:10;5.32;;;2.90;;
33738;SDS011;20063;51.730;11.110;2022-08-30T13:42:37;4.90;;;2.60;;
33738;SDS011;20063;51.730;11.110;2022-08-30T13:45:05;12.02;;;2.53;;
33738;SDS011;20063;51.730;11.110;2022-08-30T13:47:31;4.30;;;2.70;;
33738;SDS011;20063;51.730;11.110;2022-08-30T13:50:00;4.32;;;2.50;;
33738;SDS011;20063;51.730;11.110;2022-08-30T13:52:26;3.25;;;2.17;;
33738;SDS011;20063;51.730;11.110;2022-08-30T13:54:57;3.88;;;2.25;;
33738;SDS011;20063;51.730;11.110;2022-08-30T13:57:25;4.40;;;2.20;;
33738;SDS011;20063;51.730;11.110;2022-08-30T13:59:52;6.18;;;2.10;;
33738;SDS011;20063;51.730;11.110;2022-08-30T14:02:17;4.80;;;2.47;;
33738;SDS011;20063;51.730;11.110;2022-08-30T14:04:43;2.25;;;2.08;;
33738;SDS011;20063;51.730;11.110;2022-08-30T14:07:08;5.95;;;2.47;;
33738;SDS011;20063;51.730;11.110;2022-08-30T14:09:34;16.15;;;2.85;;
33738;SDS011;20063;51.730;11.110;2022-08-30T14:12:00;8.43;;;2.45;;
33738;SDS011;20063;51.730;11.110;2022-08-30T14:14:25;3.47;;;2.00;;
33738;SDS011;20063;51.730;11.110;2022-08-30T14:16:57;6.70;;;1.83;;
33738;SDS011;20063;51.730;11.110;2022-08-30T14:19:22;7.20;;;2.20;;
33738;SDS011;20063;51.730;11.110;2022-08-30T14:21:57;7.80;;;2.03;;
33738;SDS011;20063;51.730;11.110;2022-08-30T14:24:23;2.50;;;1.93;;
33738;SDS011;20063;51.730;11.110;2022-08-30T14:26:57;10.07;;;2.20;;
33738;SDS011;20063;51.730;11.110;2022-08-30T14:29:24;6.72;;;2.15;;
33738;SDS011;20063;51.730;11.110;2022-08-30T14:31:53;6.85;;;1.92;;
33738;SDS011;20063;51.730;11.110;2022-08-30T14:34:19;4.65;;;1.88;;
33738;SDS011;20063;51.730;11.110;2022-08-30T14:36:56;5.03;;;1.90;;
33738;SDS011;20063;51.730;11.110;2022-08-30T14:39:22;4.38;;;1.73;;
33738;SDS011;20063;51.730;11.110;2022-08-30T14:41:52;2.20;;;1.15;;
33738;SDS011;20063;51.730;11.110;2022-08-30T14:44:19;2.70;;;1.50;;
33738;SDS011;20063;51.730;11.110;2022-08-30T14:46:58;4.15;;;1.75;;
33738;SDS011;20063;51.730;11.110;2022-08-30T14:49:24;5.93;;;1.83;;
33738;SDS011;20063;51.730;11.110;2022-08-30T14:51:56;3.53;;;1.50;;
33738;SDS011;20063;51.730;11.110;2022-08-30T14:54:23;1.65;;;1.52;;
33738;SDS011;20063;51.730;11.110;2022-08-30T14:56:57;12.50;;;2.20;;
33738;SDS011;20063;51.730;11.110;2022-08-30T14:59:24;3.08;;;1.70;;
33738;SDS011;20063;51.730;11.110;2022-08-30T15:01:58;5.05;;;1.58;;
33738;SDS011;20063;51.730;11.110;2022-08-30T15:04:24;4.05;;;2.00;;
33738;SDS011;20063;51.730;11.110;2022-08-30T15:06:51;2.97;;;1.83;;
33738;SDS011;20063;51.730;11.110;2022-08-30T15:09:19;2.85;;;1.60;;
33738;SDS011;20063;51.730;11.110;2022-08-30T15:11:58;7.28;;;1.67;;
33738;SDS011;20063;51.730;11.110;2022-08-30T15:14:26;3.70;;;1.67;;
33738;SDS011;20063;51.730;11.110;2022-08-30T15:16:58;6.65;;;2.85;;
33738;SDS011;20063;51.730;11.110;2022-08-30T15:19:26;1.60;;;1.50;;
33738;SDS011;20063;51.730;11.110;2022-08-30T15:22:00;3.03;;;2.03;;
33738;SDS011;20063;51.730;11.110;2022-08-30T15:24:29;12.57;;;1.83;;
33738;SDS011;20063;51.730;11.110;2022-08-30T15:27:01;5.15;;;1.83;;
33738;SDS011;20063;51.730;11.110;2022-08-30T15:29:27;6.53;;;1.35;;
33738;SDS011;20063;51.730;11.110;2022-08-30T15:31:59;2.45;;;1.38;;
33738;SDS011;20063;51.730;11.110;2022-08-30T15:34:26;3.60;;;1.83;;
33738;SDS011;20063;51.730;11.110;2022-08-30T15:36:52;6.50;;;2.60;;
33738;SDS011;20063;51.730;11.110;2022-08-30T15:39:18;4.60;;;1.45;;
33738;SDS011;20063;51.730;11.110;2022-08-30T15:41:44;3.28;;;1.60;;
33738;SDS011;20063;51.730;11.110;2022-08-30T15:44:10;2.78;;;1.50;;
33738;SDS011;20063;51.730;11.110;2022-08-30T15:46:38;3.20;;;1.48;;
33738;SDS011;20063;51.730;11.110;2022-08-30T15:49:14;7.75;;;1.70;;
33738;SDS011;20063;51.730;11.110;2022-08-30T15:51:45;4.10;;;1.60;;
33738;SDS011;20063;51.730;11.110;2022-08-30T15:54:13;2.90;;;1.27;;
33738;SDS011;20063;51.730;11.110;2022-08-30T15:56:53;2.45;;;1.48;;
33738;SDS011;20063;51.730;11.110;2022-08-30T15:59:23;3.03;;;1.27;;
33738;SDS011;20063;51.730;11.110;2022-08-30T16:01:55;1.30;;;1.10;;
33738;SDS011;20063;51.730;11.110;2022-08-30T16:04:21;2.25;;;1.83;;
33738;SDS011;20063;51.730;11.110;2022-08-30T16:06:53;3.05;;;1.45;;
33738;SDS011;20063;51.730;11.110;2022-08-30T16:09:18;7.65;;;1.60;;
33738;SDS011;20063;51.730;11.110;2022-08-30T16:11:47;1.83;;;1.25;;
33738;SDS011;20063;51.730;11.110;2022-08-30T16:14:13;3.35;;;1.33;;
33738;SDS011;20063;51.730;11.110;2022-08-30T16:16:38;3.35;;;1.40;;
33738;SDS011;20063;51.730;11.110;2022-08-30T16:19:05;1.55;;;1.30;;
33738;SDS011;20063;51.730;11.110;2022-08-30T16:21:32;5.45;;;1.33;;
33738;SDS011;20063;51.730;11.110;2022-08-30T16:24:01;6.93;;;1.48;;
33738;SDS011;20063;51.730;11.110;2022-08-30T16:26:29;1.30;;;1.13;;
33738;SDS011;20063;51.730;11.110;2022-08-30T16:28:56;2.95;;;1.40;;
33738;SDS011;20063;51.730;11.110;2022-08-30T16:31:22;1.35;;;1.23;;